San Francisco (SFO/KSFO)

Information

Location
San Francisco, CA
Local Time
16:24 / 4:24 pm
GMT Time
00:24 / 12:24 am
Gates
Unassigned
No FAA reported delays
METAR KSFO 222356Z 29021G28KT 10SM FEW045 BKN200 12/03 A3022 RMK AO2 PK WND 29028/2352 SLP233 T01170028 10128 20111 55008
TAF KSFO 222326Z 2300/2406 28021G27KT P6SM FEW040 SCT200 FM230700 28015G23KT P6SM FEW035 FEW200 FM231200 27012KT P6SM FEW200 FM231500 30009KT P6SM SKC FM232100 30014G21KT P6SM SKC FM240400 29006KT P6SM SKC
  • No charts available